sensor_id;sensor_type;location;lat;lon;timestamp;P1;durP1;ratioP1;P2;durP2;ratioP2
51451;SDS011;37521;52.020;-1.740;2023-04-01T00:01:12;3.97;;;2.50;;
51451;SDS011;37521;52.020;-1.740;2023-04-01T00:03:41;2.72;;;2.28;;
51451;SDS011;37521;52.020;-1.740;2023-04-01T00:06:11;3.75;;;2.38;;
51451;SDS011;37521;52.020;-1.740;2023-04-01T00:08:41;4.07;;;2.85;;
51451;SDS011;37521;52.020;-1.740;2023-04-01T00:11:10;2.75;;;2.28;;
51451;SDS011;37521;52.020;-1.740;2023-04-01T00:13:40;4.32;;;2.60;;
51451;SDS011;37521;52.020;-1.740;2023-04-01T00:16:09;3.42;;;2.45;;
51451;SDS011;37521;52.020;-1.740;2023-04-01T00:18:47;3.80;;;3.03;;
51451;SDS011;37521;52.020;-1.740;2023-04-01T00:21:16;3.45;;;2.63;;
51451;SDS011;37521;52.020;-1.740;2023-04-01T00:23:45;3.53;;;2.92;;
51451;SDS011;37521;52.020;-1.740;2023-04-01T00:26:13;3.28;;;2.67;;
51451;SDS011;37521;52.020;-1.740;2023-04-01T00:28:47;3.55;;;2.88;;
51451;SDS011;37521;52.020;-1.740;2023-04-01T00:31:15;3.20;;;2.25;;
51451;SDS011;37521;52.020;-1.740;2023-04-01T00:33:44;3.65;;;2.72;;
51451;SDS011;37521;52.020;-1.740;2023-04-01T00:36:13;2.95;;;2.38;;
51451;SDS011;37521;52.020;-1.740;2023-04-01T00:38:43;3.97;;;2.40;;
51451;SDS011;37521;52.020;-1.740;2023-04-01T00:41:12;4.28;;;2.72;;
51451;SDS011;37521;52.020;-1.740;2023-04-01T00:43:43;6.55;;;3.05;;
51451;SDS011;37521;52.020;-1.740;2023-04-01T00:46:13;5.22;;;3.42;;
51451;SDS011;37521;52.020;-1.740;2023-04-01T00:48:43;4.60;;;3.42;;
51451;SDS011;37521;52.020;-1.740;2023-04-01T00:51:16;3.08;;;2.78;;
51451;SDS011;37521;52.020;-1.740;2023-04-01T00:53:47;5.35;;;3.13;;
51451;SDS011;37521;52.020;-1.740;2023-04-01T00:56:18;3.83;;;2.38;;
51451;SDS011;37521;52.020;-1.740;2023-04-01T00:58:51;3.85;;;3.10;;
51451;SDS011;37521;52.020;-1.740;2023-04-01T01:01:24;4.53;;;2.83;;
51451;SDS011;37521;52.020;-1.740;2023-04-01T01:03:53;5.43;;;2.95;;
51451;SDS011;37521;52.020;-1.740;2023-04-01T01:06:25;6.13;;;3.67;;
51451;SDS011;37521;52.020;-1.740;2023-04-01T01:09:08;3.60;;;3.25;;
51451;SDS011;37521;52.020;-1.740;2023-04-01T01:11:48;3.72;;;2.85;;
51451;SDS011;37521;52.020;-1.740;2023-04-01T01:14:25;6.40;;;3.63;;
51451;SDS011;37521;52.020;-1.740;2023-04-01T01:17:04;5.22;;;3.53;;
51451;SDS011;37521;52.020;-1.740;2023-04-01T01:19:44;6.07;;;3.17;;
51451;SDS011;37521;52.020;-1.740;2023-04-01T01:22:28;5.70;;;3.20;;
51451;SDS011;37521;52.020;-1.740;2023-04-01T01:25:12;4.75;;;3.33;;
51451;SDS011;37521;52.020;-1.740;2023-04-01T01:27:54;12.40;;;5.30;;
51451;SDS011;37521;52.020;-1.740;2023-04-01T01:30:36;5.88;;;2.85;;
51451;SDS011;37521;52.020;-1.740;2023-04-01T01:33:14;5.43;;;3.42;;
51451;SDS011;37521;52.020;-1.740;2023-04-01T01:35:53;5.43;;;2.65;;
51451;SDS011;37521;52.020;-1.740;2023-04-01T01:38:26;5.90;;;3.65;;
51451;SDS011;37521;52.020;-1.740;2023-04-01T01:40:59;5.32;;;3.55;;
51451;SDS011;37521;52.020;-1.740;2023-04-01T01:43:32;8.23;;;3.42;;
51451;SDS011;37521;52.020;-1.740;2023-04-01T01:46:04;7.03;;;3.80;;
51451;SDS011;37521;52.020;-1.740;2023-04-01T01:48:36;5.20;;;3.23;;
51451;SDS011;37521;52.020;-1.740;2023-04-01T01:51:08;6.47;;;3.75;;
51451;SDS011;37521;52.020;-1.740;2023-04-01T01:53:36;6.78;;;3.30;;
51451;SDS011;37521;52.020;-1.740;2023-04-01T01:56:05;9.93;;;4.10;;
51451;SDS011;37521;52.020;-1.740;2023-04-01T01:58:38;5.38;;;3.75;;
51451;SDS011;37521;52.020;-1.740;2023-04-01T02:01:13;6.07;;;3.38;;
51451;SDS011;37521;52.020;-1.740;2023-04-01T02:03:45;5.50;;;3.38;;
51451;SDS011;37521;52.020;-1.740;2023-04-01T02:06:16;6.65;;;3.63;;
51451;SDS011;37521;52.020;-1.740;2023-04-01T02:08:50;5.32;;;3.40;;
51451;SDS011;37521;52.020;-1.740;2023-04-01T02:11:23;8.20;;;4.28;;
51451;SDS011;37521;52.020;-1.740;2023-04-01T02:13:55;7.50;;;3.88;;
51451;SDS011;37521;52.020;-1.740;2023-04-01T02:16:28;7.20;;;3.83;;
51451;SDS011;37521;52.020;-1.740;2023-04-01T02:21:36;5.97;;;3.65;;
51451;SDS011;37521;52.020;-1.740;2023-04-01T02:24:07;5.03;;;3.88;;
51451;SDS011;37521;52.020;-1.740;2023-04-01T02:26:40;4.38;;;3.45;;
51451;SDS011;37521;52.020;-1.740;2023-04-01T02:29:09;5.68;;;3.80;;
51451;SDS011;37521;52.020;-1.740;2023-04-01T02:31:40;6.65;;;4.20;;
51451;SDS011;37521;52.020;-1.740;2023-04-01T02:34:10;6.55;;;3.90;;
51451;SDS011;37521;52.020;-1.740;2023-04-01T02:36:40;4.75;;;3.58;;
51451;SDS011;37521;52.020;-1.740;2023-04-01T02:39:11;5.95;;;3.88;;
51451;SDS011;37521;52.020;-1.740;2023-04-01T02:41:41;6.30;;;3.15;;
51451;SDS011;37521;52.020;-1.740;2023-04-01T02:44:10;5.72;;;3.35;;
51451;SDS011;37521;52.020;-1.740;2023-04-01T02:46:40;6.85;;;3.30;;
51451;SDS011;37521;52.020;-1.740;2023-04-01T02:49:08;6.30;;;3.88;;
51451;SDS011;37521;52.020;-1.740;2023-04-01T02:51:37;4.85;;;3.35;;
51451;SDS011;37521;52.020;-1.740;2023-04-01T02:54:07;7.63;;;3.72;;
51451;SDS011;37521;52.020;-1.740;2023-04-01T02:56:35;10.20;;;5.05;;
51451;SDS011;37521;52.020;-1.740;2023-04-01T02:59:03;6.43;;;3.90;;
51451;SDS011;37521;52.020;-1.740;2023-04-01T03:01:32;7.13;;;4.05;;
51451;SDS011;37521;52.020;-1.740;2023-04-01T03:04:00;7.38;;;3.47;;
51451;SDS011;37521;52.020;-1.740;2023-04-01T03:06:29;5.53;;;3.75;;
51451;SDS011;37521;52.020;-1.740;2023-04-01T03:08:57;6.95;;;3.72;;
51451;SDS011;37521;52.020;-1.740;2023-04-01T03:11:27;6.40;;;3.42;;
51451;SDS011;37521;52.020;-1.740;2023-04-01T03:13:55;6.13;;;3.47;;
51451;SDS011;37521;52.020;-1.740;2023-04-01T03:16:23;7.78;;;3.83;;
51451;SDS011;37521;52.020;-1.740;2023-04-01T03:18:53;6.15;;;3.47;;
51451;SDS011;37521;52.020;-1.740;2023-04-01T03:21:26;7.23;;;3.30;;
51451;SDS011;37521;52.020;-1.740;2023-04-01T03:23:57;9.20;;;3.47;;
51451;SDS011;37521;52.020;-1.740;2023-04-01T03:26:28;7.78;;;3.70;;
51451;SDS011;37521;52.020;-1.740;2023-04-01T03:28:57;4.97;;;3.30;;
51451;SDS011;37521;52.020;-1.740;2023-04-01T03:31:25;6.47;;;3.53;;
51451;SDS011;37521;52.020;-1.740;2023-04-01T03:33:55;7.55;;;4.43;;
51451;SDS011;37521;52.020;-1.740;2023-04-01T03:36:24;6.80;;;3.20;;
51451;SDS011;37521;52.020;-1.740;2023-04-01T03:38:52;4.93;;;3.17;;
51451;SDS011;37521;52.020;-1.740;2023-04-01T03:41:32;6.80;;;4.30;;
51451;SDS011;37521;52.020;-1.740;2023-04-01T03:44:00;7.10;;;3.80;;
51451;SDS011;37521;52.020;-1.740;2023-04-01T03:46:28;7.43;;;3.58;;
51451;SDS011;37521;52.020;-1.740;2023-04-01T03:48:57;6.60;;;3.67;;
51451;SDS011;37521;52.020;-1.740;2023-04-01T03:51:25;9.43;;;4.28;;
51451;SDS011;37521;52.020;-1.740;2023-04-01T03:53:53;8.13;;;4.18;;
51451;SDS011;37521;52.020;-1.740;2023-04-01T03:56:21;7.47;;;4.30;;
51451;SDS011;37521;52.020;-1.740;2023-04-01T03:58:51;8.55;;;4.53;;
51451;SDS011;37521;52.020;-1.740;2023-04-01T04:01:20;6.47;;;4.20;;
51451;SDS011;37521;52.020;-1.740;2023-04-01T04:03:53;6.38;;;4.28;;
51451;SDS011;37521;52.020;-1.740;2023-04-01T04:06:22;6.90;;;3.70;;
51451;SDS011;37521;52.020;-1.740;2023-04-01T04:08:51;5.05;;;3.33;;
51451;SDS011;37521;52.020;-1.740;2023-04-01T04:11:20;7.50;;;3.90;;
51451;SDS011;37521;52.020;-1.740;2023-04-01T04:13:52;6.80;;;3.90;;
51451;SDS011;37521;52.020;-1.740;2023-04-01T04:16:22;7.03;;;3.83;;
51451;SDS011;37521;52.020;-1.740;2023-04-01T04:21:24;6.18;;;3.20;;
51451;SDS011;37521;52.020;-1.740;2023-04-01T04:23:52;5.97;;;3.47;;
51451;SDS011;37521;52.020;-1.740;2023-04-01T04:26:21;5.20;;;3.33;;
51451;SDS011;37521;52.020;-1.740;2023-04-01T04:28:57;6.65;;;3.53;;
51451;SDS011;37521;52.020;-1.740;2023-04-01T04:31:25;6.43;;;3.05;;
51451;SDS011;37521;52.020;-1.740;2023-04-01T04:33:58;6.65;;;3.65;;
51451;SDS011;37521;52.020;-1.740;2023-04-01T04:36:26;4.75;;;3.05;;
51451;SDS011;37521;52.020;-1.740;2023-04-01T04:38:55;6.30;;;3.22;;
51451;SDS011;37521;52.020;-1.740;2023-04-01T04:41:24;4.90;;;3.35;;
51451;SDS011;37521;52.020;-1.740;2023-04-01T04:43:53;5.38;;;3.20;;
51451;SDS011;37521;52.020;-1.740;2023-04-01T04:46:25;7.97;;;3.67;;
51451;SDS011;37521;52.020;-1.740;2023-04-01T04:49:01;6.70;;;3.38;;
51451;SDS011;37521;52.020;-1.740;2023-04-01T04:51:29;5.47;;;3.40;;
51451;SDS011;37521;52.020;-1.740;2023-04-01T04:54:00;7.38;;;3.85;;
51451;SDS011;37521;52.020;-1.740;2023-04-01T04:56:42;5.65;;;3.38;;
51451;SDS011;37521;52.020;-1.740;2023-04-01T04:59:10;10.38;;;3.70;;
51451;SDS011;37521;52.020;-1.740;2023-04-01T05:01:46;5.95;;;3.15;;
51451;SDS011;37521;52.020;-1.740;2023-04-01T05:04:15;6.32;;;2.85;;
51451;SDS011;37521;52.020;-1.740;2023-04-01T05:06:43;4.70;;;2.90;;
51451;SDS011;37521;52.020;-1.740;2023-04-01T05:09:13;8.10;;;3.03;;
51451;SDS011;37521;52.020;-1.740;2023-04-01T05:11:41;7.20;;;2.92;;
51451;SDS011;37521;52.020;-1.740;2023-04-01T05:14:12;7.68;;;3.78;;
51451;SDS011;37521;52.020;-1.740;2023-04-01T05:16:43;6.30;;;3.33;;
51451;SDS011;37521;52.020;-1.740;2023-04-01T05:19:14;5.40;;;3.50;;
51451;SDS011;37521;52.020;-1.740;2023-04-01T05:21:42;7.75;;;3.28;;
51451;SDS011;37521;52.020;-1.740;2023-04-01T05:24:10;7.82;;;3.50;;
51451;SDS011;37521;52.020;-1.740;2023-04-01T05:26:39;7.95;;;3.85;;
51451;SDS011;37521;52.020;-1.740;2023-04-01T05:29:07;7.32;;;3.80;;
51451;SDS011;37521;52.020;-1.740;2023-04-01T05:31:35;5.35;;;2.60;;
51451;SDS011;37521;52.020;-1.740;2023-04-01T05:34:04;5.65;;;4.00;;
51451;SDS011;37521;52.020;-1.740;2023-04-01T05:36:34;6.28;;;3.30;;
51451;SDS011;37521;52.020;-1.740;2023-04-01T05:39:02;5.57;;;3.85;;
51451;SDS011;37521;52.020;-1.740;2023-04-01T05:41:31;6.30;;;3.60;;
51451;SDS011;37521;52.020;-1.740;2023-04-01T05:43:59;7.28;;;2.88;;
51451;SDS011;37521;52.020;-1.740;2023-04-01T05:46:46;4.85;;;2.83;;
51451;SDS011;37521;52.020;-1.740;2023-04-01T05:49:19;5.97;;;2.70;;
51451;SDS011;37521;52.020;-1.740;2023-04-01T05:51:50;3.67;;;2.47;;
51451;SDS011;37521;52.020;-1.740;2023-04-01T05:54:19;4.43;;;2.72;;
51451;SDS011;37521;52.020;-1.740;2023-04-01T05:56:47;6.13;;;2.63;;
51451;SDS011;37521;52.020;-1.740;2023-04-01T05:59:16;4.32;;;2.13;;
51451;SDS011;37521;52.020;-1.740;2023-04-01T06:01:45;6.05;;;2.35;;
51451;SDS011;37521;52.020;-1.740;2023-04-01T06:04:14;4.60;;;2.38;;
51451;SDS011;37521;52.020;-1.740;2023-04-01T06:06:44;3.45;;;2.33;;
51451;SDS011;37521;52.020;-1.740;2023-04-01T06:09:15;5.97;;;2.72;;
51451;SDS011;37521;52.020;-1.740;2023-04-01T06:11:55;4.53;;;2.65;;
51451;SDS011;37521;52.020;-1.740;2023-04-01T06:14:47;5.15;;;3.22;;
51451;SDS011;37521;52.020;-1.740;2023-04-01T06:17:26;6.53;;;2.92;;
51451;SDS011;37521;52.020;-1.740;2023-04-01T06:20:03;5.55;;;3.40;;
51451;SDS011;37521;52.020;-1.740;2023-04-01T06:22:43;4.10;;;2.75;;
51451;SDS011;37521;52.020;-1.740;2023-04-01T06:25:28;6.00;;;3.15;;
51451;SDS011;37521;52.020;-1.740;2023-04-01T06:28:07;4.78;;;2.67;;
51451;SDS011;37521;52.020;-1.740;2023-04-01T06:31:00;7.75;;;3.63;;
51451;SDS011;37521;52.020;-1.740;2023-04-01T06:33:45;9.13;;;3.92;;
51451;SDS011;37521;52.020;-1.740;2023-04-01T06:36:31;5.75;;;3.90;;
51451;SDS011;37521;52.020;-1.740;2023-04-01T06:39:17;5.57;;;3.63;;
51451;SDS011;37521;52.020;-1.740;2023-04-01T06:44:51;4.55;;;2.67;;
51451;SDS011;37521;52.020;-1.740;2023-04-01T06:47:52;5.03;;;3.13;;
51451;SDS011;37521;52.020;-1.740;2023-04-01T06:50:51;5.57;;;3.65;;
51451;SDS011;37521;52.020;-1.740;2023-04-01T06:53:47;4.30;;;2.88;;
51451;SDS011;37521;52.020;-1.740;2023-04-01T06:56:42;4.47;;;2.78;;
51451;SDS011;37521;52.020;-1.740;2023-04-01T06:59:22;6.10;;;2.88;;
51451;SDS011;37521;52.020;-1.740;2023-04-01T07:04:25;3.63;;;2.70;;
51451;SDS011;37521;52.020;-1.740;2023-04-01T07:06:58;4.13;;;3.05;;
51451;SDS011;37521;52.020;-1.740;2023-04-01T07:09:31;8.32;;;4.00;;
51451;SDS011;37521;52.020;-1.740;2023-04-01T07:12:32;6.65;;;3.60;;
51451;SDS011;37521;52.020;-1.740;2023-04-01T07:15:28;5.28;;;3.67;;
51451;SDS011;37521;52.020;-1.740;2023-04-01T07:18:04;7.32;;;4.07;;
51451;SDS011;37521;52.020;-1.740;2023-04-01T07:20:37;6.75;;;4.25;;
51451;SDS011;37521;52.020;-1.740;2023-04-01T07:23:06;7.47;;;4.05;;
51451;SDS011;37521;52.020;-1.740;2023-04-01T07:26:04;5.15;;;2.97;;
51451;SDS011;37521;52.020;-1.740;2023-04-01T07:29:00;5.88;;;3.58;;
51451;SDS011;37521;52.020;-1.740;2023-04-01T07:31:42;5.53;;;3.55;;
51451;SDS011;37521;52.020;-1.740;2023-04-01T07:34:23;7.80;;;4.05;;
51451;SDS011;37521;52.020;-1.740;2023-04-01T07:36:54;4.57;;;3.13;;
51451;SDS011;37521;52.020;-1.740;2023-04-01T07:39:32;4.35;;;2.95;;
51451;SDS011;37521;52.020;-1.740;2023-04-01T07:42:15;5.63;;;3.53;;
51451;SDS011;37521;52.020;-1.740;2023-04-01T07:44:54;6.57;;;3.53;;
51451;SDS011;37521;52.020;-1.740;2023-04-01T07:47:34;7.63;;;3.30;;
51451;SDS011;37521;52.020;-1.740;2023-04-01T07:50:17;4.88;;;2.47;;
51451;SDS011;37521;52.020;-1.740;2023-04-01T07:52:52;4.10;;;2.67;;
51451;SDS011;37521;52.020;-1.740;2023-04-01T07:55:32;5.07;;;2.80;;
51451;SDS011;37521;52.020;-1.740;2023-04-01T07:58:08;3.40;;;2.10;;
51451;SDS011;37521;52.020;-1.740;2023-04-01T08:00:47;4.03;;;2.83;;
51451;SDS011;37521;52.020;-1.740;2023-04-01T08:03:35;3.55;;;2.50;;
51451;SDS011;37521;52.020;-1.740;2023-04-01T08:06:11;4.40;;;1.95;;
51451;SDS011;37521;52.020;-1.740;2023-04-01T08:08:48;6.28;;;3.00;;
51451;SDS011;37521;52.020;-1.740;2023-04-01T08:11:46;6.07;;;3.35;;
51451;SDS011;37521;52.020;-1.740;2023-04-01T08:14:50;6.60;;;3.25;;
51451;SDS011;37521;52.020;-1.740;2023-04-01T08:17:51;8.75;;;2.75;;
51451;SDS011;37521;52.020;-1.740;2023-04-01T08:20:32;7.38;;;2.35;;
51451;SDS011;37521;52.020;-1.740;2023-04-01T08:23:06;8.55;;;3.65;;
51451;SDS011;37521;52.020;-1.740;2023-04-01T08:25:43;13.05;;;4.10;;
51451;SDS011;37521;52.020;-1.740;2023-04-01T08:28:17;9.27;;;4.47;;
51451;SDS011;37521;52.020;-1.740;2023-04-01T08:30:52;7.40;;;2.90;;
51451;SDS011;37521;52.020;-1.740;2023-04-01T08:33:25;8.32;;;3.70;;
51451;SDS011;37521;52.020;-1.740;2023-04-01T08:36:05;10.15;;;4.65;;
51451;SDS011;37521;52.020;-1.740;2023-04-01T08:38:40;7.43;;;4.18;;
51451;SDS011;37521;52.020;-1.740;2023-04-01T08:41:19;6.25;;;3.42;;
51451;SDS011;37521;52.020;-1.740;2023-04-01T08:44:25;5.63;;;3.03;;
51451;SDS011;37521;52.020;-1.740;2023-04-01T08:47:07;7.85;;;3.13;;
51451;SDS011;37521;52.020;-1.740;2023-04-01T08:49:51;5.65;;;3.08;;
51451;SDS011;37521;52.020;-1.740;2023-04-01T08:52:56;6.68;;;3.45;;
51451;SDS011;37521;52.020;-1.740;2023-04-01T08:55:31;5.55;;;3.15;;
51451;SDS011;37521;52.020;-1.740;2023-04-01T08:58:18;8.95;;;3.88;;
51451;SDS011;37521;52.020;-1.740;2023-04-01T09:01:22;4.60;;;2.70;;
51451;SDS011;37521;52.020;-1.740;2023-04-01T09:04:13;4.97;;;3.13;;
51451;SDS011;37521;52.020;-1.740;2023-04-01T09:06:57;6.43;;;3.50;;
51451;SDS011;37521;52.020;-1.740;2023-04-01T09:09:48;5.40;;;2.95;;
51451;SDS011;37521;52.020;-1.740;2023-04-01T09:12:39;3.08;;;2.70;;
51451;SDS011;37521;52.020;-1.740;2023-04-01T09:15:30;7.55;;;3.75;;
51451;SDS011;37521;52.020;-1.740;2023-04-01T09:18:19;3.95;;;2.80;;
51451;SDS011;37521;52.020;-1.740;2023-04-01T09:21:08;6.75;;;2.83;;
51451;SDS011;37521;52.020;-1.740;2023-04-01T09:23:54;5.67;;;2.73;;
51451;SDS011;37521;52.020;-1.740;2023-04-01T09:26:46;8.75;;;3.75;;
51451;SDS011;37521;52.020;-1.740;2023-04-01T09:29:31;7.47;;;3.70;;
51451;SDS011;37521;52.020;-1.740;2023-04-01T09:32:21;8.63;;;4.35;;
51451;SDS011;37521;52.020;-1.740;2023-04-01T09:35:20;6.78;;;3.35;;
51451;SDS011;37521;52.020;-1.740;2023-04-01T09:37:54;9.88;;;4.00;;
51451;SDS011;37521;52.020;-1.740;2023-04-01T09:43:20;5.78;;;3.42;;
51451;SDS011;37521;52.020;-1.740;2023-04-01T09:45:57;6.05;;;3.95;;
51451;SDS011;37521;52.020;-1.740;2023-04-01T09:48:39;7.28;;;3.85;;
51451;SDS011;37521;52.020;-1.740;2023-04-01T09:51:23;6.68;;;4.07;;
51451;SDS011;37521;52.020;-1.740;2023-04-01T09:54:03;6.82;;;4.30;;
51451;SDS011;37521;52.020;-1.740;2023-04-01T10:09:14;8.95;;;4.20;;
51451;SDS011;37521;52.020;-1.740;2023-04-01T10:15:12;9.07;;;4.20;;
51451;SDS011;37521;52.020;-1.740;2023-04-01T10:21:07;5.22;;;3.17;;
51451;SDS011;37521;52.020;-1.740;2023-04-01T10:23:51;3.45;;;2.63;;
51451;SDS011;37521;52.020;-1.740;2023-04-01T10:33:08;4.72;;;3.20;;
51451;SDS011;37521;52.020;-1.740;2023-04-01T10:36:05;5.40;;;3.35;;
51451;SDS011;37521;52.020;-1.740;2023-04-01T10:38:58;7.32;;;3.35;;
51451;SDS011;37521;52.020;-1.740;2023-04-01T10:41:58;4.93;;;2.75;;
51451;SDS011;37521;52.020;-1.740;2023-04-01T10:48:10;7.50;;;3.65;;
51451;SDS011;37521;52.020;-1.740;2023-04-01T10:53:43;2.78;;;1.98;;
51451;SDS011;37521;52.020;-1.740;2023-04-01T10:59:45;1.90;;;1.60;;
51451;SDS011;37521;52.020;-1.740;2023-04-01T11:09:34;1.58;;;1.27;;
51451;SDS011;37521;52.020;-1.740;2023-04-01T11:18:36;3.63;;;2.47;;
51451;SDS011;37521;52.020;-1.740;2023-04-01T11:21:31;3.58;;;3.03;;
51451;SDS011;37521;52.020;-1.740;2023-04-01T11:27:43;8.05;;;3.55;;
51451;SDS011;37521;52.020;-1.740;2023-04-01T11:30:43;4.95;;;3.60;;
51451;SDS011;37521;52.020;-1.740;2023-04-01T11:33:22;6.88;;;2.83;;
51451;SDS011;37521;52.020;-1.740;2023-04-01T11:38:52;3.28;;;2.55;;
51451;SDS011;37521;52.020;-1.740;2023-04-01T11:41:48;4.75;;;3.33;;
51451;SDS011;37521;52.020;-1.740;2023-04-01T11:44:43;3.33;;;2.42;;
51451;SDS011;37521;52.020;-1.740;2023-04-01T11:47:40;4.10;;;2.28;;
51451;SDS011;37521;52.020;-1.740;2023-04-01T11:50:21;1.75;;;1.65;;
51451;SDS011;37521;52.020;-1.740;2023-04-01T11:53:05;2.00;;;1.73;;
51451;SDS011;37521;52.020;-1.740;2023-04-01T11:55:47;1.67;;;1.38;;
51451;SDS011;37521;52.020;-1.740;2023-04-01T11:58:28;2.28;;;1.65;;
51451;SDS011;37521;52.020;-1.740;2023-04-01T12:01:08;1.98;;;1.33;;
51451;SDS011;37521;52.020;-1.740;2023-04-01T12:06:48;2.40;;;1.70;;
51451;SDS011;37521;52.020;-1.740;2023-04-01T12:09:29;1.98;;;1.33;;
51451;SDS011;37521;52.020;-1.740;2023-04-01T12:12:09;1.85;;;1.55;;
51451;SDS011;37521;52.020;-1.740;2023-04-01T12:14:45;1.83;;;1.67;;
51451;SDS011;37521;52.020;-1.740;2023-04-01T12:17:27;2.40;;;1.15;;
51451;SDS011;37521;52.020;-1.740;2023-04-01T12:20:12;1.60;;;1.45;;
51451;SDS011;37521;52.020;-1.740;2023-04-01T12:22:54;2.22;;;1.33;;
51451;SDS011;37521;52.020;-1.740;2023-04-01T12:25:37;1.45;;;1.30;;
51451;SDS011;37521;52.020;-1.740;2023-04-01T12:28:20;0.93;;;0.93;;
51451;SDS011;37521;52.020;-1.740;2023-04-01T12:30:55;1.40;;;1.30;;
51451;SDS011;37521;52.020;-1.740;2023-04-01T12:33:35;2.42;;;1.60;;
51451;SDS011;37521;52.020;-1.740;2023-04-01T12:36:32;1.67;;;1.57;;
51451;SDS011;37521;52.020;-1.740;2023-04-01T12:39:14;1.60;;;1.10;;
51451;SDS011;37521;52.020;-1.740;2023-04-01T12:41:59;1.55;;;1.27;;
51451;SDS011;37521;52.020;-1.740;2023-04-01T12:44:38;1.60;;;1.27;;
51451;SDS011;37521;52.020;-1.740;2023-04-01T12:47:19;1.52;;;1.23;;
51451;SDS011;37521;52.020;-1.740;2023-04-01T12:50:09;1.55;;;1.45;;
51451;SDS011;37521;52.020;-1.740;2023-04-01T12:52:57;1.17;;;1.08;;
51451;SDS011;37521;52.020;-1.740;2023-04-01T12:55:38;1.95;;;1.10;;
51451;SDS011;37521;52.020;-1.740;2023-04-01T13:01:18;1.88;;;1.23;;
51451;SDS011;37521;52.020;-1.740;2023-04-01T13:03:59;1.63;;;1.48;;
51451;SDS011;37521;52.020;-1.740;2023-04-01T13:06:44;3.78;;;1.25;;
51451;SDS011;37521;52.020;-1.740;2023-04-01T13:09:26;2.10;;;1.17;;
51451;SDS011;37521;52.020;-1.740;2023-04-01T13:12:09;2.28;;;1.35;;
51451;SDS011;37521;52.020;-1.740;2023-04-01T13:14:57;3.47;;;1.13;;
51451;SDS011;37521;52.020;-1.740;2023-04-01T13:17:47;0.88;;;0.88;;
51451;SDS011;37521;52.020;-1.740;2023-04-01T13:20:24;1.08;;;1.08;;
51451;SDS011;37521;52.020;-1.740;2023-04-01T13:23:05;1.45;;;1.10;;
51451;SDS011;37521;52.020;-1.740;2023-04-01T13:25:43;1.00;;;1.00;;
51451;SDS011;37521;52.020;-1.740;2023-04-01T13:28:34;1.50;;;1.38;;
51451;SDS011;37521;52.020;-1.740;2023-04-01T13:31:08;1.88;;;1.38;;
51451;SDS011;37521;52.020;-1.740;2023-04-01T13:33:50;0.90;;;0.90;;
51451;SDS011;37521;52.020;-1.740;2023-04-01T13:36:28;1.38;;;0.93;;
51451;SDS011;37521;52.020;-1.740;2023-04-01T13:39:09;0.68;;;0.68;;
51451;SDS011;37521;52.020;-1.740;2023-04-01T13:41:54;0.80;;;0.80;;
51451;SDS011;37521;52.020;-1.740;2023-04-01T13:44:36;2.35;;;1.80;;
51451;SDS011;37521;52.020;-1.740;2023-04-01T13:47:11;1.83;;;1.50;;
51451;SDS011;37521;52.020;-1.740;2023-04-01T13:55:49;1.20;;;1.10;;
51451;SDS011;37521;52.020;-1.740;2023-04-01T13:58:35;2.13;;;1.15;;
51451;SDS011;37521;52.020;-1.740;2023-04-01T14:01:18;0.90;;;0.90;;
51451;SDS011;37521;52.020;-1.740;2023-04-01T14:07:06;0.88;;;0.75;;
51451;SDS011;37521;52.020;-1.740;2023-04-01T14:09:50;1.25;;;0.98;;
51451;SDS011;37521;52.020;-1.740;2023-04-01T14:12:30;0.93;;;0.85;;
51451;SDS011;37521;52.020;-1.740;2023-04-01T14:15:10;2.05;;;0.82;;
51451;SDS011;37521;52.020;-1.740;2023-04-01T14:17:54;0.73;;;0.70;;
51451;SDS011;37521;52.020;-1.740;2023-04-01T14:20:42;0.90;;;0.80;;
51451;SDS011;37521;52.020;-1.740;2023-04-01T14:23:24;1.27;;;0.93;;
51451;SDS011;37521;52.020;-1.740;2023-04-01T14:26:13;1.08;;;0.98;;
51451;SDS011;37521;52.020;-1.740;2023-04-01T14:28:54;1.08;;;0.93;;
51451;SDS011;37521;52.020;-1.740;2023-04-01T14:31:34;1.23;;;1.05;;
51451;SDS011;37521;52.020;-1.740;2023-04-01T14:34:18;0.75;;;0.75;;
51451;SDS011;37521;52.020;-1.740;2023-04-01T14:36:57;0.75;;;0.70;;
51451;SDS011;37521;52.020;-1.740;2023-04-01T14:42:52;1.13;;;0.98;;
51451;SDS011;37521;52.020;-1.740;2023-04-01T14:45:36;1.30;;;1.20;;
51451;SDS011;37521;52.020;-1.740;2023-04-01T14:48:17;1.10;;;1.05;;
51451;SDS011;37521;52.020;-1.740;2023-04-01T14:50:53;1.98;;;0.80;;
51451;SDS011;37521;52.020;-1.740;2023-04-01T14:53:26;1.88;;;1.27;;
51451;SDS011;37521;52.020;-1.740;2023-04-01T14:55:56;2.37;;;1.60;;
51451;SDS011;37521;52.020;-1.740;2023-04-01T14:58:30;1.83;;;1.35;;
51451;SDS011;37521;52.020;-1.740;2023-04-01T15:01:13;2.75;;;1.45;;
51451;SDS011;37521;52.020;-1.740;2023-04-01T15:03:55;2.40;;;1.77;;
51451;SDS011;37521;52.020;-1.740;2023-04-01T15:06:35;1.65;;;1.23;;
51451;SDS011;37521;52.020;-1.740;2023-04-01T15:09:14;3.65;;;1.38;;
51451;SDS011;37521;52.020;-1.740;2023-04-01T15:11:52;2.15;;;1.17;;
51451;SDS011;37521;52.020;-1.740;2023-04-01T15:14:35;2.53;;;1.25;;
51451;SDS011;37521;52.020;-1.740;2023-04-01T15:17:16;1.75;;;1.40;;
51451;SDS011;37521;52.020;-1.740;2023-04-01T15:19:59;1.38;;;1.02;;
51451;SDS011;37521;52.020;-1.740;2023-04-01T15:22:42;1.30;;;0.85;;
51451;SDS011;37521;52.020;-1.740;2023-04-01T15:25:26;1.23;;;1.10;;
51451;SDS011;37521;52.020;-1.740;2023-04-01T15:28:05;1.38;;;1.13;;
51451;SDS011;37521;52.020;-1.740;2023-04-01T15:30:46;0.85;;;0.80;;
51451;SDS011;37521;52.020;-1.740;2023-04-01T15:33:26;1.20;;;0.70;;
51451;SDS011;37521;52.020;-1.740;2023-04-01T15:36:15;1.60;;;0.98;;
51451;SDS011;37521;52.020;-1.740;2023-04-01T15:38:55;1.02;;;0.75;;
51451;SDS011;37521;52.020;-1.740;2023-04-01T15:41:35;1.38;;;1.00;;
51451;SDS011;37521;52.020;-1.740;2023-04-01T15:47:15;1.92;;;1.20;;
51451;SDS011;37521;52.020;-1.740;2023-04-01T15:49:59;2.05;;;1.30;;
51451;SDS011;37521;52.020;-1.740;2023-04-01T15:52:56;1.92;;;1.15;;
51451;SDS011;37521;52.020;-1.740;2023-04-01T15:55:37;1.48;;;1.17;;
51451;SDS011;37521;52.020;-1.740;2023-04-01T15:58:18;1.45;;;1.13;;
51451;SDS011;37521;52.020;-1.740;2023-04-01T16:00:57;2.35;;;2.13;;
51451;SDS011;37521;52.020;-1.740;2023-04-01T16:03:39;1.30;;;1.20;;
51451;SDS011;37521;52.020;-1.740;2023-04-01T16:06:21;2.00;;;1.20;;
51451;SDS011;37521;52.020;-1.740;2023-04-01T16:09:07;2.08;;;1.02;;
51451;SDS011;37521;52.020;-1.740;2023-04-01T16:11:48;1.42;;;1.02;;
51451;SDS011;37521;52.020;-1.740;2023-04-01T16:14:28;1.58;;;1.23;;
51451;SDS011;37521;52.020;-1.740;2023-04-01T16:17:07;2.17;;;1.20;;
51451;SDS011;37521;52.020;-1.740;2023-04-01T16:19:52;2.97;;;1.45;;
51451;SDS011;37521;52.020;-1.740;2023-04-01T16:22:25;2.13;;;1.10;;
51451;SDS011;37521;52.020;-1.740;2023-04-01T16:25:07;2.17;;;1.38;;
51451;SDS011;37521;52.020;-1.740;2023-04-01T16:27:49;2.13;;;0.98;;
51451;SDS011;37521;52.020;-1.740;2023-04-01T16:30:24;2.42;;;1.13;;
51451;SDS011;37521;52.020;-1.740;2023-04-01T16:33:01;2.40;;;1.00;;
51451;SDS011;37521;52.020;-1.740;2023-04-01T16:35:36;0.65;;;0.65;;
51451;SDS011;37521;52.020;-1.740;2023-04-01T16:38:13;0.77;;;0.77;;
51451;SDS011;37521;52.020;-1.740;2023-04-01T16:40:50;3.90;;;2.42;;
51451;SDS011;37521;52.020;-1.740;2023-04-01T16:43:29;2.42;;;1.23;;
51451;SDS011;37521;52.020;-1.740;2023-04-01T16:46:25;2.92;;;1.98;;
51451;SDS011;37521;52.020;-1.740;2023-04-01T16:48:59;0.68;;;0.68;;
51451;SDS011;37521;52.020;-1.740;2023-04-01T16:51:33;0.73;;;0.73;;
51451;SDS011;37521;52.020;-1.740;2023-04-01T16:54:10;1.17;;;0.93;;
51451;SDS011;37521;52.020;-1.740;2023-04-01T16:56:47;1.05;;;1.02;;
51451;SDS011;37521;52.020;-1.740;2023-04-01T16:59:21;3.08;;;1.75;;
51451;SDS011;37521;52.020;-1.740;2023-04-01T17:01:55;1.95;;;1.52;;
51451;SDS011;37521;52.020;-1.740;2023-04-01T17:04:32;1.73;;;1.33;;
51451;SDS011;37521;52.020;-1.740;2023-04-01T17:07:10;2.33;;;1.63;;